This is the latest recevied weather packets stored in our database for station/object KE8ZLU. If no packets are shown the sender has not sent any weather packets the latest 1 day(s).
| Time | Temp. | Humidity | Pressure | Rain* | Wind** | Luminosity | Snow |
|---|---|---|---|---|---|---|---|
| 1778026886 | 9.44° C | 54% | 1009.8 hPa | 0 mm | 1.34 m/s, 267° | 5 W/m² | - |
| 1778026581 | 9.44° C | 55% | 1009.9 hPa | 0 mm | 1.79 m/s, 281° | 6 W/m² | - |
| 1778026279 | 9.44° C | 55% | 1009.9 hPa | 0 mm | 2.24 m/s, 291° | 7 W/m² | - |
| 1778025976 | 9.44° C | 55% | 1009.9 hPa | 0 mm | 1.34 m/s, 308° | 8 W/m² | - |
| 1778025673 | 9.44° C | 54% | 1009.9 hPa | 0 mm | 0.89 m/s, 275° | 11 W/m² | - |
| 1778025371 | 10° C | 54% | 1009.7 hPa | 0 mm | 1.79 m/s, 268° | 11 W/m² | - |
| 1778025068 | 10° C | 52% | 1009.7 hPa | 0 mm | 2.24 m/s, 267° | 12 W/m² | - |
| 1778024765 | 10° C | 53% | 1009.9 hPa | 0 mm | 1.34 m/s, 293° | 11 W/m² | - |
| 1778024462 | 10° C | 53% | 1009.8 hPa | 0 mm | 1.79 m/s, 280° | 12 W/m² | - |
| 1778024159 | 10° C | 52% | 1009.7 hPa | 0 mm | 2.24 m/s, 291° | 13 W/m² | - |
| 1778023856 | 10° C | 53% | 1009.8 hPa | 0 mm | 1.34 m/s, 280° | 16 W/m² | - |
| 1778023554 | 10° C | 52% | 1009.6 hPa | 0 mm | 1.79 m/s, 293° | 26 W/m² | - |
| 1778023252 | 10° C | 53% | 1009.6 hPa | 0 mm | 2.24 m/s, 303° | 19 W/m² | - |
| 1778022948 | 10° C | 51% | 1009.5 hPa | 0 mm | 2.68 m/s, 308° | 25 W/m² | - |
| 1778022647 | 10° C | 50% | 1009.4 hPa | 0 mm | 1.79 m/s, 298° | 34 W/m² | - |
| 1778022344 | 10° C | 50% | 1009.5 hPa | 0 mm | 3.13 m/s, 303° | 33 W/m² | - |
| 1778022040 | 10.56° C | 51% | 1009.8 hPa | 0 mm | 3.58 m/s, 299° | 40 W/m² | - |
| 1778021737 | 10.56° C | 51% | 1009.4 hPa | 0 mm | 1.79 m/s, 290° | 46 W/m² | - |
| 1778021433 | 10.56° C | 50% | 1009.5 hPa | 0 mm | 2.24 m/s, 275° | 61 W/m² | - |
| 1778021130 | 10.56° C | 50% | 1009.6 hPa | 0 mm | 2.68 m/s, 289° | 58 W/m² | - |
| 1778020828 | 10.56° C | 48% | 1009.4 hPa | 0 mm | 3.58 m/s, 294° | 62 W/m² | - |
| 1778020525 | 10.56° C | 48% | 1009.4 hPa | 0 mm | 3.58 m/s, 271° | 73 W/m² | - |
| 1778020221 | 10.56° C | 52% | 1009.4 hPa | 0 mm | 1.79 m/s, 317° | 81 W/m² | - |
| 1778019917 | 11.11° C | 49% | 1009.6 hPa | 0 mm | 2.68 m/s, 285° | 78 W/m² | - |
| 1778019613 | 11.11° C | 47% | 1009.7 hPa | 0 mm | 2.68 m/s, 287° | 83 W/m² | - |
* Rain latest hour (hover to see other rain measurements)
** Current wind speed in m/s (hover to see current wind gust speed)